METAR Data
IDs: Format: Raw Decoded Include TAF

Data at: 1347 UTC 26 Feb 2021

ESMT 261320Z 31015KT CAVOK 07/04 Q1022